Time;durP1;ratioP1;P1;durP2;ratioP2;P2;SDS_P1;SDS_P2;PMS_P1;PMS_P2;Temp;Humidity;BMP_temperature;BMP_pressure;BME280_temperature;BME280_humidity;BME280_pressure;Samples;Min_cycle;Max_cycle;Signal;HPM_P1;HPM_P2
2022/04/09 00:01:01;;;;;;;11.18;4.58;;;;;;;5.43;100.00;100009.78;1676549;83;21035;-79
2022/04/09 00:03:27;;;;;;;12.05;5.45;;;;;;;5.40;100.00;100010.25;1669141;83;21124;-79
2022/04/09 00:05:54;;;;;;;10.75;4.80;;;;;;;5.40;100.00;100025.48;1660507;84;21556;-80
2022/04/09 00:08:20;;;;;;;11.55;5.10;;;;;;;5.36;100.00;100014.47;1645858;85;21011;-79
2022/04/09 00:10:47;;;;;;;11.90;5.30;;;;;;;5.32;100.00;100009.30;1657933;85;21181;-79
2022/04/09 00:13:13;;;;;;;10.32;4.87;;;;;;;5.28;100.00;100012.70;1650303;84;22287;-79
2022/04/09 00:15:41;;;;;;;10.95;5.03;;;;;;;5.21;100.00;100010.19;1652159;84;21158;-79
2022/04/09 00:18:08;;;;;;;16.25;5.97;;;;;;;5.13;100.00;100015.38;1663701;83;21130;-79
2022/04/09 00:20:34;;;;;;;8.50;4.33;;;;;;;5.08;100.00;100023.28;1675108;83;21028;-79
2022/04/09 00:23:00;;;;;;;12.30;5.08;;;;;;;5.01;100.00;100021.28;1663679;83;21047;-79
2022/04/09 00:25:27;;;;;;;11.05;5.50;;;;;;;4.96;100.00;100021.17;1650700;84;21151;-79
2022/04/09 00:27:53;;;;;;;15.68;6.90;;;;;;;4.93;100.00;100028.33;1667770;83;21162;-79
2022/04/09 00:30:20;;;;;;;20.95;7.97;;;;;;;4.87;100.00;100019.40;1671255;83;21062;-78
2022/04/09 00:32:47;;;;;;;20.92;8.50;;;;;;;4.83;100.00;100024.94;1667715;83;21036;-79
2022/04/09 00:35:13;;;;;;;19.35;7.35;;;;;;;4.80;100.00;100030.75;1671287;84;21840;-79
2022/04/09 00:37:44;;;;;;;20.12;7.92;;;;;;;4.77;100.00;100035.22;1671769;84;21023;-79
2022/04/09 00:40:13;;;;;;;16.90;7.80;;;;;;;4.74;100.00;100037.03;1663455;84;21196;-79
2022/04/09 00:42:42;;;;;;;14.93;7.25;;;;;;;4.72;100.00;100036.44;1670579;83;21122;-79
2022/04/09 00:45:11;;;;;;;13.95;6.78;;;;;;;4.68;100.00;100029.44;1645168;84;20986;-79
2022/04/09 00:47:37;;;;;;;12.70;5.83;;;;;;;4.62;100.00;100038.88;1652690;84;21959;-79
2022/04/09 00:50:10;;;;;;;14.33;6.40;;;;;;;4.57;100.00;100032.92;1617481;86;21085;-79
2022/04/09 00:52:49;;;;;;;15.13;6.62;;;;;;;4.54;100.00;100032.06;1653804;84;21138;-80
2022/04/09 00:56:12;;;;;;;12.33;5.92;;;;;;;4.54;100.00;100032.86;1648983;84;21139;-80
2022/04/09 00:57:51;;;;;;;11.63;6.17;;;;;;;4.50;100.00;100031.72;1644073;84;20963;-81
2022/04/09 01:00:19;;;;;;;11.63;5.95;;;;;;;4.51;100.00;100040.00;1658588;84;21181;-79
2022/04/09 01:02:46;;;;;;;12.07;5.62;;;;;;;4.48;100.00;100047.67;1662581;84;21589;-81
2022/04/09 01:05:13;;;;;;;14.28;6.22;;;;;;;4.36;100.00;100049.53;1657180;84;21184;-80
2022/04/09 01:07:39;;;;;;;12.03;6.20;;;;;;;4.30;100.00;100048.08;1659383;84;21076;-80
2022/04/09 01:10:11;;;;;;;14.23;6.40;;;;;;;4.23;100.00;100049.22;1647745;86;21007;-80
2022/04/09 01:12:38;;;;;;;12.13;6.05;;;;;;;4.18;100.00;100053.13;1648947;84;21239;-80
2022/04/09 01:15:09;;;;;;;14.43;5.40;;;;;;;4.14;100.00;100063.95;1657542;84;21082;-80
2022/04/09 01:17:36;;;;;;;10.95;5.72;;;;;;;4.09;100.00;100057.98;1630261;86;21219;-80
2022/04/09 01:20:22;;;;;;;12.85;7.05;;;;;;;4.03;100.00;100061.05;1641724;84;21109;-80
2022/04/09 01:22:49;;;;;;;15.00;6.50;;;;;;;3.99;100.00;100065.20;1593345;88;21106;-80
2022/04/09 01:27:51;;;;;;;17.62;7.78;;;;;;;3.94;100.00;100066.42;1889216;76;22633;-80
2022/04/09 01:30:18;;;;;;;14.85;8.05;;;;;;;3.81;100.00;100066.61;1860072;77;20998;-80
2022/04/09 01:32:45;;;;;;;19.42;9.50;;;;;;;3.79;100.00;100071.34;1860439;77;21122;-80
2022/04/09 01:35:12;;;;;;;18.55;8.43;;;;;;;3.75;100.00;100078.19;1860353;77;20989;-80
2022/04/09 01:37:38;;;;;;;18.75;9.03;;;;;;;3.71;100.00;100092.49;1860512;77;20998;-80
2022/04/09 01:40:06;;;;;;;21.65;9.20;;;;;;;3.64;100.00;100093.09;1859939;77;20983;-80
2022/04/09 01:42:32;;;;;;;18.77;8.73;;;;;;;3.61;100.00;100091.69;1860534;77;21018;-80
2022/04/09 01:44:58;;;;;;;17.32;7.72;;;;;;;3.57;100.00;100102.51;1860233;77;21504;-80
2022/04/09 01:47:24;;;;;;;16.32;8.58;;;;;;;3.50;100.00;100100.47;1860479;77;21006;-80
2022/04/09 01:49:51;;;;;;;17.57;8.95;;;;;;;3.53;100.00;100101.84;1860295;77;20975;-80
2022/04/09 01:52:17;;;;;;;14.95;8.38;;;;;;;3.48;100.00;100098.54;1860459;77;20963;-80
2022/04/09 01:54:43;;;;;;;18.57;8.90;;;;;;;3.45;100.00;100089.67;1860486;77;20988;-80
2022/04/09 01:57:10;;;;;;;15.40;8.15;;;;;;;3.45;100.00;100100.32;1860159;77;21083;-80
2022/04/09 01:59:36;;;;;;;17.77;8.63;;;;;;;3.43;100.00;100108.23;1860252;77;21101;-80
2022/04/09 02:02:03;;;;;;;19.40;7.95;;;;;;;3.36;100.00;100109.14;1859868;77;21042;-80
2022/04/09 02:04:29;;;;;;;20.10;8.45;;;;;;;3.33;100.00;100114.11;1860375;77;21011;-80
2022/04/09 02:06:55;;;;;;;26.97;8.55;;;;;;;3.29;100.00;100120.38;1860168;77;21060;-80
2022/04/09 02:09:22;;;;;;;23.30;9.18;;;;;;;3.29;100.00;100127.55;1860406;77;21117;-80
2022/04/09 02:11:48;;;;;;;23.98;9.08;;;;;;;3.24;100.00;100127.44;1860164;77;21038;-80
2022/04/09 02:14:14;;;;;;;43.70;8.68;;;;;;;3.16;100.00;100126.68;1860361;77;21043;-80
2022/04/09 02:16:41;;;;;;;29.42;9.23;;;;;;;3.13;100.00;100131.12;1860426;77;21488;-80
2022/04/09 02:19:08;;;;;;;21.85;9.13;;;;;;;3.09;100.00;100131.28;1860095;77;21026;-80
2022/04/09 02:21:35;;;;;;;27.42;8.33;;;;;;;3.09;100.00;100141.09;1860069;77;21142;-79
2022/04/09 02:24:01;;;;;;;61.33;10.23;;;;;;;3.08;100.00;100140.80;1860214;77;20955;-80
2022/04/09 02:26:27;;;;;;;43.63;8.75;;;;;;;3.04;100.00;100147.09;1861283;76;21049;-80
2022/04/09 02:28:54;;;;;;;51.75;7.22;;;;;;;3.00;100.00;100147.74;1863582;77;20976;-80
2022/04/09 02:31:20;;;;;;;13.55;6.37;;;;;;;2.98;100.00;100149.83;1863846;77;20967;-79
2022/04/09 02:33:47;;;;;;;45.20;7.92;;;;;;;2.94;100.00;100160.08;1863224;77;22047;-80
2022/04/09 02:36:15;;;;;;;23.45;8.35;;;;;;;2.90;100.00;100166.89;1863658;77;21002;-80
2022/04/09 02:38:42;;;;;;;25.23;9.93;;;;;;;2.92;100.00;100160.31;1862861;76;21084;-81
2022/04/09 02:41:09;;;;;;;21.65;9.35;;;;;;;2.95;100.00;100163.06;1863121;77;21019;-80
2022/04/09 02:43:36;;;;;;;29.02;9.08;;;;;;;2.98;100.00;100165.80;1862973;77;21011;-80
2022/04/09 02:46:04;;;;;;;24.00;10.30;;;;;;;2.98;100.00;100157.30;1863150;77;21124;-80
2022/04/09 02:48:30;;;;;;;25.90;10.98;;;;;;;2.98;100.00;100161.81;1862989;77;20990;-80
2022/04/09 02:50:57;;;;;;;28.10;11.38;;;;;;;2.98;100.00;100167.94;1862983;77;21011;-80
2022/04/09 02:53:23;;;;;;;26.37;11.33;;;;;;;3.00;100.00;100170.36;1862903;77;21018;-80
2022/04/09 02:55:49;;;;;;;27.48;11.48;;;;;;;3.00;100.00;100168.55;1863031;77;21061;-80
2022/04/09 02:58:15;;;;;;;25.15;10.32;;;;;;;2.98;100.00;100175.12;1863117;77;20999;-80
2022/04/09 03:00:42;;;;;;;28.20;12.78;;;;;;;2.97;100.00;100170.28;1862911;77;21062;-80
2022/04/09 03:03:08;;;;;;;27.10;10.95;;;;;;;3.01;100.00;100165.36;1863198;77;21105;-80
2022/04/09 03:05:34;;;;;;;23.55;9.98;;;;;;;3.04;100.00;100166.25;1862921;77;20991;-80
2022/04/09 03:08:00;;;;;;;29.67;12.07;;;;;;;3.07;100.00;100161.29;1862967;77;20923;-80
2022/04/09 03:10:27;;;;;;;28.55;10.55;;;;;;;3.12;100.00;100165.44;1862821;77;21053;-80
2022/04/09 03:12:53;;;;;;;27.65;10.55;;;;;;;3.15;100.00;100168.98;1862837;77;21058;-80
2022/04/09 03:15:19;;;;;;;22.85;9.35;;;;;;;3.14;100.00;100175.33;1862825;76;21062;-80
2022/04/09 03:17:45;;;;;;;28.85;11.25;;;;;;;3.14;100.00;100187.31;1862829;77;21492;-80
2022/04/09 03:20:12;;;;;;;27.75;10.63;;;;;;;3.15;100.00;100189.48;1791813;79;21054;-80
2022/04/09 03:22:46;;;;;;;27.50;10.10;;;;;;;3.19;100.00;100173.34;1792649;79;21831;-80
2022/04/09 03:25:14;;;;;;;32.67;11.30;;;;;;;3.23;100.00;100169.72;1790296;79;21018;-80
2022/04/09 03:27:40;;;;;;;25.62;11.53;;;;;;;3.29;100.00;100176.81;1792597;79;21483;-80
2022/04/09 03:30:08;;;;;;;30.12;11.80;;;;;;;3.36;100.00;100186.37;1792496;79;21582;-80
2022/04/09 03:32:38;;;;;;;32.00;11.55;;;;;;;3.45;100.00;100190.88;1761647;80;20990;-80
2022/04/09 03:35:06;;;;;;;28.95;11.73;;;;;;;3.53;100.00;100194.59;1761449;80;21153;-80
2022/04/09 03:37:36;;;;;;;29.92;11.50;;;;;;;3.61;100.00;100197.45;1761557;80;21086;-80
2022/04/09 03:40:07;;;;;;;32.83;11.75;;;;;;;3.67;100.00;100196.55;1761466;80;21100;-80
2022/04/09 03:42:33;;;;;;;32.17;11.10;;;;;;;3.76;100.00;100196.53;1683883;85;21575;-80
2022/04/09 03:45:00;;;;;;;34.18;11.18;;;;;;;3.91;100.00;100196.13;1723031;81;21689;-80
2022/04/09 03:47:26;;;;;;;31.30;11.90;;;;;;;4.05;100.00;100208.77;1751866;81;21309;-80
2022/04/09 03:49:53;;;;;;;29.70;11.43;;;;;;;4.21;100.00;100214.00;1751814;81;21058;-80
2022/04/09 03:52:19;;;;;;;26.27;10.13;;;;;;;4.35;100.00;100210.08;1751844;81;21540;-80
2022/04/09 03:54:45;;;;;;;31.85;10.85;;;;;;;4.53;100.00;100209.22;1751856;81;21082;-80
2022/04/09 03:57:12;;;;;;;28.27;9.48;;;;;;;4.71;100.00;100221.13;1752016;81;21082;-80
2022/04/09 03:59:38;;;;;;;23.35;8.05;;;;;;;4.91;100.00;100227.48;1751986;81;21133;-80
2022/04/09 04:02:04;;;;;;;16.40;7.37;;;;;;;5.24;100.00;100224.22;1751842;81;21576;-80
2022/04/09 04:04:30;;;;;;;20.72;7.65;;;;;;;6.26;100.00;100218.77;1785338;80;21622;-79
2022/04/09 04:06:57;;;;;;;18.52;6.67;;;;;;;7.94;100.00;100215.05;1790001;80;21003;-80
2022/04/09 04:09:23;;;;;;;15.72;5.72;;;;;;;9.53;100.00;100214.98;1790802;80;21105;-80
2022/04/09 04:11:49;;;;;;;13.83;5.72;;;;;;;11.05;100.00;100215.50;1790757;80;20971;-80
2022/04/09 04:14:15;;;;;;;14.13;5.83;;;;;;;12.33;100.00;100224.48;1790442;80;21467;-80
2022/04/09 04:16:42;;;;;;;13.08;5.22;;;;;;;13.34;100.00;100236.87;1790683;80;21054;-81
2022/04/09 04:19:09;;;;;;;9.35;5.03;;;;;;;14.25;100.00;100245.77;1790733;79;21053;-81
2022/04/09 04:21:36;;;;;;;11.90;4.58;;;;;;;15.37;100.00;100232.29;1790419;79;21033;-81
2022/04/09 04:24:03;;;;;;;9.63;4.75;;;;;;;16.45;100.00;100229.50;1764869;80;21195;-81
2022/04/09 04:26:29;;;;;;;9.98;4.50;;;;;;;17.61;100.00;100234.17;1790601;78;21120;-81
2022/04/09 04:28:56;;;;;;;10.72;5.35;;;;;;;18.50;100.00;100247.91;1790746;80;21005;-81
2022/04/09 04:31:22;;;;;;;8.70;4.58;;;;;;;19.23;100.00;100243.06;1790554;79;20990;-81
2022/04/09 04:33:48;;;;;;;8.73;4.72;;;;;;;20.10;100.00;100236.63;1790842;80;21527;-79
2022/04/09 04:36:15;;;;;;;10.65;5.42;;;;;;;21.01;92.19;100238.19;1790870;79;21621;-78
2022/04/09 04:38:41;;;;;;;10.13;5.50;;;;;;;21.96;79.06;100237.58;1790635;80;21559;-78
2022/04/09 04:41:07;;;;;;;21.77;9.90;;;;;;;22.52;67.00;100228.65;1790653;80;21046;-78
2022/04/09 04:43:34;;;;;;;20.88;11.00;;;;;;;23.13;61.40;100231.11;1790594;80;21057;-79
2022/04/09 04:46:00;;;;;;;15.78;8.38;;;;;;;23.88;58.44;100218.38;1830095;77;21043;-78
2022/04/09 04:48:26;;;;;;;8.20;4.42;;;;;;;24.68;54.66;100223.84;1859538;77;21399;-79
2022/04/09 04:50:53;;;;;;;7.20;4.37;;;;;;;25.24;50.51;100225.27;1859773;77;20987;-79
2022/04/09 04:53:19;;;;;;;6.28;3.80;;;;;;;25.81;48.28;100219.84;1859659;77;21414;-79
2022/04/09 04:55:45;;;;;;;5.95;3.35;;;;;;;26.48;46.11;100220.55;1859513;77;20947;-79
2022/04/09 04:58:12;;;;;;;7.67;3.70;;;;;;;26.98;43.81;100222.49;1859596;77;20991;-79
2022/04/09 05:00:38;;;;;;;6.55;3.47;;;;;;;27.52;42.64;100226.53;1859518;77;21114;-79
2022/04/09 05:03:04;;;;;;;5.25;3.12;;;;;;;27.94;40.06;100220.30;1859784;77;21014;-79
2022/04/09 05:05:33;;;;;;;6.47;3.35;;;;;;;28.30;39.35;100215.16;1859645;77;21062;-79
2022/04/09 05:07:59;;;;;;;6.33;3.47;;;;;;;28.13;38.04;100216.46;1792975;80;21061;-79
2022/04/09 05:10:27;;;;;;;4.97;3.20;;;;;;;27.99;38.64;100220.73;1792708;80;21205;-79
2022/04/09 05:12:54;;;;;;;6.40;3.30;;;;;;;28.37;38.25;100222.69;1790411;80;21188;-79
2022/04/09 05:15:21;;;;;;;6.20;3.30;;;;;;;28.47;37.02;100230.30;1792542;79;21010;-79
2022/04/09 05:17:47;;;;;;;5.58;3.00;;;;;;;28.19;36.65;100230.93;1792868;80;21008;-80
2022/04/09 05:20:16;;;;;;;4.58;3.30;;;;;;;27.99;36.61;100229.64;1792651;80;21546;-79
2022/04/09 05:22:46;;;;;;;4.87;3.20;;;;;;;28.05;37.01;100235.80;1792809;80;21050;-80
2022/04/09 05:25:16;;;;;;;4.62;3.35;;;;;;;28.47;37.04;100238.62;1792610;80;21530;-80
2022/04/09 05:30:11;;;;;;;6.05;3.22;;;;;;;29.25;35.61;100228.88;1746438;82;21575;-80
2022/04/09 05:32:39;;;;;;;4.03;3.00;;;;;;;29.74;34.63;100227.88;1746700;82;21093;-80
2022/04/09 05:35:10;;;;;;;6.30;3.10;;;;;;;30.14;33.28;100219.63;1746630;82;21010;-80
2022/04/09 05:37:36;;;;;;;6.72;3.22;;;;;;;30.39;33.33;100213.22;1746894;82;21827;-80
2022/04/09 05:40:05;;;;;;;4.67;2.85;;;;;;;30.86;32.80;100210.39;1746708;82;21056;-80
2022/04/09 05:42:31;;;;;;;5.15;3.12;;;;;;;31.30;31.60;100208.87;1746961;82;21539;-80
